<?xml version="1.0" encoding="UTF-8" standalone="no" ?>
<gpx xmlns="http://www.topografix.com/GPX/1/1" xmlns:xsi="http://www.w3.org/2001/XMLSchema-instance" xsi:schemaLocation="http://www.topografix.com/GPX/1/1 http://www.topografix.com/GPX/1/1/gpx.xsd" version="1.1" creator="VisuGPX - https://www.visugpx.com">
  <metadata>
    <name>Grotte de Caramau</name>
  </metadata>
  <wpt lat="43.53547" lon="3.25217">
    <ele>141</ele>
    <name><![CDATA[Parking au pied du]]></name>
  </wpt>
  <wpt lat="43.53549" lon="3.25232">
    <ele>143</ele>
    <name><![CDATA[à gauche suivre le chemin]]></name>
  </wpt>
  <wpt lat="43.5412" lon="3.25441">
    <ele>146</ele>
    <name><![CDATA[Passage à gué]]></name>
  </wpt>
  <wpt lat="43.54435" lon="3.25745">
    <ele>155</ele>
    <name><![CDATA[chaises, divan, table.]]></name>
  </wpt>
  <wpt lat="43.54434" lon="3.25717">
    <ele>162</ele>
    <name><![CDATA[À droite jusqu'au portillon]]></name>
  </wpt>
  <wpt lat="43.54936" lon="3.26206">
    <ele>183</ele>
    <name><![CDATA[Sentier à droite qui descend - Chaise bleue]]></name>
  </wpt>
  <wpt lat="43.5501" lon="3.26674">
    <ele>173</ele>
    <name><![CDATA[Carrefour]]></name>
  </wpt>
  <wpt lat="43.55046" lon="3.26836">
    <ele>168</ele>
    <name><![CDATA[À gauche dans le bois]]></name>
  </wpt>
  <wpt lat="43.55015" lon="3.26673">
    <ele>173</ele>
    <name><![CDATA[cairn à droite]]></name>
  </wpt>
  <wpt lat="43.55041" lon="3.26529">
    <ele>183</ele>
    <name><![CDATA[Cairn ]]></name>
  </wpt>
  <wpt lat="43.55867" lon="3.26472">
    <ele>270</ele>
    <name><![CDATA[Piste]]></name>
  </wpt>
  <wpt lat="43.56291" lon="3.26907">
    <ele>252</ele>
    <name><![CDATA[Bifurcation - Ancien enclos ]]></name>
  </wpt>
  <wpt lat="43.56548" lon="3.26932">
    <ele>319</ele>
    <name><![CDATA[Croisement en T]]></name>
  </wpt>
  <wpt lat="43.5687" lon="3.26507">
    <ele>343</ele>
    <name><![CDATA[Carrefour au milieu des prés]]></name>
  </wpt>
  <wpt lat="43.5618" lon="3.25164">
    <ele>300</ele>
    <name><![CDATA[Bout de la vigne - Piste]]></name>
  </wpt>
  <wpt lat="43.54741" lon="3.24982">
    <ele>241</ele>
    <name><![CDATA[Bois du Devès - Bifurcation en T proche de la]]></name>
  </wpt>
  <wpt lat="43.53772" lon="3.24633">
    <ele>142</ele>
    <name><![CDATA[Pneus, à gauche]]></name>
  </wpt>
  <wpt lat="43.53544" lon="3.25212">
    <ele>140</ele>
    <name><![CDATA[Parking au pied du]]></name>
  </wpt>
  <trk>
    <name><![CDATA[La Grotte de Caramau]]></name>
    <trkseg>
      <trkpt lat="43.53547" lon="3.25217">
        <ele>141</ele>
        <time>2021-04-03T07:48:21+02:00</time>
      </trkpt>
      <trkpt lat="43.53549" lon="3.25232">
        <ele>143</ele>
        <time>2021-04-03T07:48:26+02:00</time>
      </trkpt>
      <trkpt lat="43.53581" lon="3.25228">
        <ele>144</ele>
        <time>2021-04-03T07:48:31+02:00</time>
      </trkpt>
      <trkpt lat="43.53613" lon="3.25219">
        <ele>140</ele>
        <time>2021-04-03T07:48:36+02:00</time>
      </trkpt>
      <trkpt lat="43.53638" lon="3.25215">
        <ele>136</ele>
        <time>2021-04-03T07:48:41+02:00</time>
      </trkpt>
      <trkpt lat="43.53656" lon="3.2519">
        <ele>135</ele>
        <time>2021-04-03T07:48:46+02:00</time>
      </trkpt>
      <trkpt lat="43.5367" lon="3.25183">
        <ele>135</ele>
        <time>2021-04-03T07:48:51+02:00</time>
      </trkpt>
      <trkpt lat="43.53708" lon="3.25192">
        <ele>135</ele>
        <time>2021-04-03T07:48:56+02:00</time>
      </trkpt>
      <trkpt lat="43.53747" lon="3.25192">
        <ele>135</ele>
        <time>2021-04-03T07:49:01+02:00</time>
      </trkpt>
      <trkpt lat="43.53779" lon="3.25206">
        <ele>135</ele>
        <time>2021-04-03T07:49:06+02:00</time>
      </trkpt>
      <trkpt lat="43.53836" lon="3.25261">
        <ele>135</ele>
        <time>2021-04-03T07:49:11+02:00</time>
      </trkpt>
      <trkpt lat="43.53851" lon="3.25266">
        <ele>136</ele>
        <time>2021-04-03T07:49:16+02:00</time>
      </trkpt>
      <trkpt lat="43.5388" lon="3.25301">
        <ele>142</ele>
        <time>2021-04-03T07:49:21+02:00</time>
      </trkpt>
      <trkpt lat="43.53912" lon="3.25331">
        <ele>144</ele>
        <time>2021-04-03T07:49:26+02:00</time>
      </trkpt>
      <trkpt lat="43.53928" lon="3.2534">
        <ele>144</ele>
        <time>2021-04-03T07:49:31+02:00</time>
      </trkpt>
      <trkpt lat="43.53961" lon="3.25355">
        <ele>144</ele>
        <time>2021-04-03T07:49:36+02:00</time>
      </trkpt>
      <trkpt lat="43.53987" lon="3.25376">
        <ele>143</ele>
        <time>2021-04-03T07:49:41+02:00</time>
      </trkpt>
      <trkpt lat="43.54001" lon="3.25396">
        <ele>142</ele>
        <time>2021-04-03T07:49:46+02:00</time>
      </trkpt>
      <trkpt lat="43.54016" lon="3.25402">
        <ele>142</ele>
        <time>2021-04-03T07:49:51+02:00</time>
      </trkpt>
      <trkpt lat="43.54032" lon="3.2541">
        <ele>141</ele>
        <time>2021-04-03T07:49:56+02:00</time>
      </trkpt>
      <trkpt lat="43.54059" lon="3.25444">
        <ele>142</ele>
        <time>2021-04-03T07:50:01+02:00</time>
      </trkpt>
      <trkpt lat="43.54072" lon="3.25448">
        <ele>143</ele>
        <time>2021-04-03T07:50:06+02:00</time>
      </trkpt>
      <trkpt lat="43.54103" lon="3.25444">
        <ele>145</ele>
        <time>2021-04-03T07:50:11+02:00</time>
      </trkpt>
      <trkpt lat="43.5412" lon="3.25441">
        <ele>146</ele>
        <time>2021-04-03T07:50:16+02:00</time>
      </trkpt>
      <trkpt lat="43.5413" lon="3.25459">
        <ele>146</ele>
        <time>2021-04-03T07:50:21+02:00</time>
      </trkpt>
      <trkpt lat="43.54162" lon="3.25503">
        <ele>146</ele>
        <time>2021-04-03T07:50:26+02:00</time>
      </trkpt>
      <trkpt lat="43.54183" lon="3.25523">
        <ele>147</ele>
        <time>2021-04-03T07:50:31+02:00</time>
      </trkpt>
      <trkpt lat="43.5419" lon="3.25534">
        <ele>148</ele>
        <time>2021-04-03T07:50:36+02:00</time>
      </trkpt>
      <trkpt lat="43.54208" lon="3.25549">
        <ele>150</ele>
        <time>2021-04-03T07:50:41+02:00</time>
      </trkpt>
      <trkpt lat="43.542" lon="3.25576">
        <ele>147</ele>
        <time>2021-04-03T07:50:46+02:00</time>
      </trkpt>
      <trkpt lat="43.54189" lon="3.256">
        <ele>145</ele>
        <time>2021-04-03T07:50:51+02:00</time>
      </trkpt>
      <trkpt lat="43.542" lon="3.25626">
        <ele>145</ele>
        <time>2021-04-03T07:50:56+02:00</time>
      </trkpt>
      <trkpt lat="43.5423" lon="3.25627">
        <ele>148</ele>
        <time>2021-04-03T07:51:01+02:00</time>
      </trkpt>
      <trkpt lat="43.54249" lon="3.25645">
        <ele>149</ele>
        <time>2021-04-03T07:51:06+02:00</time>
      </trkpt>
      <trkpt lat="43.54268" lon="3.25646">
        <ele>151</ele>
        <time>2021-04-03T07:51:11+02:00</time>
      </trkpt>
      <trkpt lat="43.5429" lon="3.25663">
        <ele>152</ele>
        <time>2021-04-03T07:51:16+02:00</time>
      </trkpt>
      <trkpt lat="43.54311" lon="3.25686">
        <ele>152</ele>
        <time>2021-04-03T07:51:21+02:00</time>
      </trkpt>
      <trkpt lat="43.54359" lon="3.25763">
        <ele>150</ele>
        <time>2021-04-03T07:51:26+02:00</time>
      </trkpt>
      <trkpt lat="43.54378" lon="3.25766">
        <ele>150</ele>
        <time>2021-04-03T07:51:31+02:00</time>
      </trkpt>
      <trkpt lat="43.54406" lon="3.25752">
        <ele>151</ele>
        <time>2021-04-03T07:51:36+02:00</time>
      </trkpt>
      <trkpt lat="43.54422" lon="3.25749">
        <ele>152</ele>
        <time>2021-04-03T07:51:41+02:00</time>
      </trkpt>
      <trkpt lat="43.54435" lon="3.25745">
        <ele>155</ele>
        <time>2021-04-03T07:51:46+02:00</time>
      </trkpt>
      <trkpt lat="43.54434" lon="3.25717">
        <ele>162</ele>
        <time>2021-04-03T07:51:51+02:00</time>
      </trkpt>
      <trkpt lat="43.54452" lon="3.25733">
        <ele>163</ele>
        <time>2021-04-03T07:51:56+02:00</time>
      </trkpt>
      <trkpt lat="43.54459" lon="3.25736">
        <ele>165</ele>
        <time>2021-04-03T07:52:01+02:00</time>
      </trkpt>
      <trkpt lat="43.54498" lon="3.25764">
        <ele>172</ele>
        <time>2021-04-03T07:52:06+02:00</time>
      </trkpt>
      <trkpt lat="43.5453" lon="3.25799">
        <ele>171</ele>
        <time>2021-04-03T07:52:11+02:00</time>
      </trkpt>
      <trkpt lat="43.54585" lon="3.25826">
        <ele>170</ele>
        <time>2021-04-03T07:52:16+02:00</time>
      </trkpt>
      <trkpt lat="43.54632" lon="3.25857">
        <ele>168</ele>
        <time>2021-04-03T07:52:21+02:00</time>
      </trkpt>
      <trkpt lat="43.54644" lon="3.25873">
        <ele>167</ele>
        <time>2021-04-03T07:52:26+02:00</time>
      </trkpt>
      <trkpt lat="43.54665" lon="3.2588">
        <ele>168</ele>
        <time>2021-04-03T07:52:31+02:00</time>
      </trkpt>
      <trkpt lat="43.54698" lon="3.25905">
        <ele>167</ele>
        <time>2021-04-03T07:52:36+02:00</time>
      </trkpt>
      <trkpt lat="43.54717" lon="3.25919">
        <ele>168</ele>
        <time>2021-04-03T07:52:41+02:00</time>
      </trkpt>
      <trkpt lat="43.54737" lon="3.25926">
        <ele>169</ele>
        <time>2021-04-03T07:52:46+02:00</time>
      </trkpt>
      <trkpt lat="43.54755" lon="3.25935">
        <ele>170</ele>
        <time>2021-04-03T07:52:51+02:00</time>
      </trkpt>
      <trkpt lat="43.54777" lon="3.2597">
        <ele>170</ele>
        <time>2021-04-03T07:52:56+02:00</time>
      </trkpt>
      <trkpt lat="43.54815" lon="3.26034">
        <ele>174</ele>
        <time>2021-04-03T07:53:01+02:00</time>
      </trkpt>
      <trkpt lat="43.54844" lon="3.26077">
        <ele>176</ele>
        <time>2021-04-03T07:53:06+02:00</time>
      </trkpt>
      <trkpt lat="43.54875" lon="3.26115">
        <ele>178</ele>
        <time>2021-04-03T07:53:11+02:00</time>
      </trkpt>
      <trkpt lat="43.54907" lon="3.26159">
        <ele>179</ele>
        <time>2021-04-03T07:53:16+02:00</time>
      </trkpt>
      <trkpt lat="43.54927" lon="3.26192">
        <ele>182</ele>
        <time>2021-04-03T07:53:21+02:00</time>
      </trkpt>
      <trkpt lat="43.54936" lon="3.26206">
        <ele>183</ele>
        <time>2021-04-03T07:53:26+02:00</time>
      </trkpt>
      <trkpt lat="43.54935" lon="3.26235">
        <ele>181</ele>
        <time>2021-04-03T07:53:31+02:00</time>
      </trkpt>
      <trkpt lat="43.54949" lon="3.26257">
        <ele>182</ele>
        <time>2021-04-03T07:53:36+02:00</time>
      </trkpt>
      <trkpt lat="43.54947" lon="3.26265">
        <ele>182</ele>
        <time>2021-04-03T07:53:41+02:00</time>
      </trkpt>
      <trkpt lat="43.54967" lon="3.26303">
        <ele>186</ele>
        <time>2021-04-03T07:53:46+02:00</time>
      </trkpt>
      <trkpt lat="43.54981" lon="3.26315">
        <ele>188</ele>
        <time>2021-04-03T07:53:51+02:00</time>
      </trkpt>
      <trkpt lat="43.54988" lon="3.26338">
        <ele>191</ele>
        <time>2021-04-03T07:53:56+02:00</time>
      </trkpt>
      <trkpt lat="43.54983" lon="3.26353">
        <ele>191</ele>
        <time>2021-04-03T07:54:01+02:00</time>
      </trkpt>
      <trkpt lat="43.54982" lon="3.26382">
        <ele>191</ele>
        <time>2021-04-03T07:54:06+02:00</time>
      </trkpt>
      <trkpt lat="43.54979" lon="3.26415">
        <ele>188</ele>
        <time>2021-04-03T07:54:11+02:00</time>
      </trkpt>
      <trkpt lat="43.54981" lon="3.26446">
        <ele>186</ele>
        <time>2021-04-03T07:54:16+02:00</time>
      </trkpt>
      <trkpt lat="43.54986" lon="3.26477">
        <ele>185</ele>
        <time>2021-04-03T07:54:21+02:00</time>
      </trkpt>
      <trkpt lat="43.55004" lon="3.26523">
        <ele>182</ele>
        <time>2021-04-03T07:54:26+02:00</time>
      </trkpt>
      <trkpt lat="43.55014" lon="3.26545">
        <ele>181</ele>
        <time>2021-04-03T07:54:31+02:00</time>
      </trkpt>
      <trkpt lat="43.55017" lon="3.26565">
        <ele>179</ele>
        <time>2021-04-03T07:54:36+02:00</time>
      </trkpt>
      <trkpt lat="43.55014" lon="3.26588">
        <ele>178</ele>
        <time>2021-04-03T07:54:41+02:00</time>
      </trkpt>
      <trkpt lat="43.55017" lon="3.26614">
        <ele>176</ele>
        <time>2021-04-03T07:54:46+02:00</time>
      </trkpt>
      <trkpt lat="43.5501" lon="3.26674">
        <ele>173</ele>
        <time>2021-04-03T07:54:51+02:00</time>
      </trkpt>
      <trkpt lat="43.55013" lon="3.26736">
        <ele>171</ele>
        <time>2021-04-03T07:54:56+02:00</time>
      </trkpt>
      <trkpt lat="43.55012" lon="3.26752">
        <ele>171</ele>
        <time>2021-04-03T07:55:01+02:00</time>
      </trkpt>
      <trkpt lat="43.55005" lon="3.26769">
        <ele>168</ele>
        <time>2021-04-03T07:55:06+02:00</time>
      </trkpt>
      <trkpt lat="43.55013" lon="3.26786">
        <ele>168</ele>
        <time>2021-04-03T07:55:11+02:00</time>
      </trkpt>
      <trkpt lat="43.55025" lon="3.26801">
        <ele>169</ele>
        <time>2021-04-03T07:55:16+02:00</time>
      </trkpt>
      <trkpt lat="43.55041" lon="3.26817">
        <ele>169</ele>
        <time>2021-04-03T07:55:21+02:00</time>
      </trkpt>
      <trkpt lat="43.55046" lon="3.26836">
        <ele>168</ele>
        <time>2021-04-03T07:55:26+02:00</time>
      </trkpt>
      <trkpt lat="43.5506" lon="3.26832">
        <ele>167</ele>
        <time>2021-04-03T07:55:31+02:00</time>
      </trkpt>
      <trkpt lat="43.55083" lon="3.26813">
        <ele>168</ele>
        <time>2021-04-03T07:55:36+02:00</time>
      </trkpt>
      <trkpt lat="43.55097" lon="3.26795">
        <ele>171</ele>
        <time>2021-04-03T07:55:41+02:00</time>
      </trkpt>
      <trkpt lat="43.55113" lon="3.26787">
        <ele>172</ele>
        <time>2021-04-03T07:55:46+02:00</time>
      </trkpt>
      <trkpt lat="43.55123" lon="3.26781">
        <ele>173</ele>
        <time>2021-04-03T07:55:51+02:00</time>
      </trkpt>
      <trkpt lat="43.55135" lon="3.26778">
        <ele>175</ele>
        <time>2021-04-03T07:55:56+02:00</time>
      </trkpt>
      <trkpt lat="43.55153" lon="3.26766">
        <ele>180</ele>
        <time>2021-04-03T07:56:01+02:00</time>
      </trkpt>
      <trkpt lat="43.55137" lon="3.26768">
        <ele>176</ele>
        <time>2021-04-03T07:56:06+02:00</time>
      </trkpt>
      <trkpt lat="43.55111" lon="3.26779">
        <ele>171</ele>
        <time>2021-04-03T07:56:11+02:00</time>
      </trkpt>
      <trkpt lat="43.55091" lon="3.26797">
        <ele>171</ele>
        <time>2021-04-03T07:56:16+02:00</time>
      </trkpt>
      <trkpt lat="43.55078" lon="3.26813">
        <ele>169</ele>
        <time>2021-04-03T07:56:21+02:00</time>
      </trkpt>
      <trkpt lat="43.55057" lon="3.2683">
        <ele>167</ele>
        <time>2021-04-03T07:56:26+02:00</time>
      </trkpt>
      <trkpt lat="43.55048" lon="3.26831">
        <ele>168</ele>
        <time>2021-04-03T07:56:31+02:00</time>
      </trkpt>
      <trkpt lat="43.55041" lon="3.26807">
        <ele>169</ele>
        <time>2021-04-03T07:56:36+02:00</time>
      </trkpt>
      <trkpt lat="43.55025" lon="3.26796">
        <ele>169</ele>
        <time>2021-04-03T07:56:41+02:00</time>
      </trkpt>
      <trkpt lat="43.55008" lon="3.26768">
        <ele>169</ele>
        <time>2021-04-03T07:56:46+02:00</time>
      </trkpt>
      <trkpt lat="43.55014" lon="3.26752">
        <ele>171</ele>
        <time>2021-04-03T07:56:51+02:00</time>
      </trkpt>
      <trkpt lat="43.55017" lon="3.26733">
        <ele>172</ele>
        <time>2021-04-03T07:56:56+02:00</time>
      </trkpt>
      <trkpt lat="43.55015" lon="3.26673">
        <ele>173</ele>
        <time>2021-04-03T07:57:01+02:00</time>
      </trkpt>
      <trkpt lat="43.55026" lon="3.2667">
        <ele>174</ele>
        <time>2021-04-03T07:57:06+02:00</time>
      </trkpt>
      <trkpt lat="43.5505" lon="3.26648">
        <ele>176</ele>
        <time>2021-04-03T07:57:11+02:00</time>
      </trkpt>
      <trkpt lat="43.55061" lon="3.2663">
        <ele>178</ele>
        <time>2021-04-03T07:57:16+02:00</time>
      </trkpt>
      <trkpt lat="43.55067" lon="3.26613">
        <ele>180</ele>
        <time>2021-04-03T07:57:21+02:00</time>
      </trkpt>
      <trkpt lat="43.55064" lon="3.26588">
        <ele>180</ele>
        <time>2021-04-03T07:57:26+02:00</time>
      </trkpt>
      <trkpt lat="43.55054" lon="3.26561">
        <ele>180</ele>
        <time>2021-04-03T07:57:31+02:00</time>
      </trkpt>
      <trkpt lat="43.55041" lon="3.26529">
        <ele>183</ele>
        <time>2021-04-03T07:57:36+02:00</time>
      </trkpt>
      <trkpt lat="43.55061" lon="3.2652">
        <ele>188</ele>
        <time>2021-04-03T07:57:41+02:00</time>
      </trkpt>
      <trkpt lat="43.55079" lon="3.26512">
        <ele>193</ele>
        <time>2021-04-03T07:57:46+02:00</time>
      </trkpt>
      <trkpt lat="43.55094" lon="3.26512">
        <ele>197</ele>
        <time>2021-04-03T07:57:51+02:00</time>
      </trkpt>
      <trkpt lat="43.55107" lon="3.26533">
        <ele>196</ele>
        <time>2021-04-03T07:57:56+02:00</time>
      </trkpt>
      <trkpt lat="43.55104" lon="3.26561">
        <ele>193</ele>
        <time>2021-04-03T07:58:01+02:00</time>
      </trkpt>
      <trkpt lat="43.55113" lon="3.26605">
        <ele>192</ele>
        <time>2021-04-03T07:58:06+02:00</time>
      </trkpt>
      <trkpt lat="43.55131" lon="3.26604">
        <ele>199</ele>
        <time>2021-04-03T07:58:11+02:00</time>
      </trkpt>
      <trkpt lat="43.55148" lon="3.26615">
        <ele>202</ele>
        <time>2021-04-03T07:58:16+02:00</time>
      </trkpt>
      <trkpt lat="43.55168" lon="3.26609">
        <ele>205</ele>
        <time>2021-04-03T07:58:21+02:00</time>
      </trkpt>
      <trkpt lat="43.55194" lon="3.26591">
        <ele>206</ele>
        <time>2021-04-03T07:58:26+02:00</time>
      </trkpt>
      <trkpt lat="43.55209" lon="3.26567">
        <ele>208</ele>
        <time>2021-04-03T07:58:31+02:00</time>
      </trkpt>
      <trkpt lat="43.55232" lon="3.2654">
        <ele>210</ele>
        <time>2021-04-03T07:58:36+02:00</time>
      </trkpt>
      <trkpt lat="43.55256" lon="3.26511">
        <ele>213</ele>
        <time>2021-04-03T07:58:41+02:00</time>
      </trkpt>
      <trkpt lat="43.55269" lon="3.26485">
        <ele>215</ele>
        <time>2021-04-03T07:58:46+02:00</time>
      </trkpt>
      <trkpt lat="43.55286" lon="3.2645">
        <ele>219</ele>
        <time>2021-04-03T07:58:51+02:00</time>
      </trkpt>
      <trkpt lat="43.55303" lon="3.26438">
        <ele>219</ele>
        <time>2021-04-03T07:58:56+02:00</time>
      </trkpt>
      <trkpt lat="43.55315" lon="3.26416">
        <ele>224</ele>
        <time>2021-04-03T07:59:01+02:00</time>
      </trkpt>
      <trkpt lat="43.55342" lon="3.26406">
        <ele>227</ele>
        <time>2021-04-03T07:59:06+02:00</time>
      </trkpt>
      <trkpt lat="43.55365" lon="3.26403">
        <ele>229</ele>
        <time>2021-04-03T07:59:11+02:00</time>
      </trkpt>
      <trkpt lat="43.55414" lon="3.26394">
        <ele>227</ele>
        <time>2021-04-03T07:59:16+02:00</time>
      </trkpt>
      <trkpt lat="43.55426" lon="3.26381">
        <ele>229</ele>
        <time>2021-04-03T07:59:21+02:00</time>
      </trkpt>
      <trkpt lat="43.55439" lon="3.26359">
        <ele>231</ele>
        <time>2021-04-03T07:59:26+02:00</time>
      </trkpt>
      <trkpt lat="43.55468" lon="3.26374">
        <ele>235</ele>
        <time>2021-04-03T07:59:31+02:00</time>
      </trkpt>
      <trkpt lat="43.5548" lon="3.26391">
        <ele>236</ele>
        <time>2021-04-03T07:59:36+02:00</time>
      </trkpt>
      <trkpt lat="43.55493" lon="3.26393">
        <ele>239</ele>
        <time>2021-04-03T07:59:41+02:00</time>
      </trkpt>
      <trkpt lat="43.55524" lon="3.26423">
        <ele>236</ele>
        <time>2021-04-03T07:59:46+02:00</time>
      </trkpt>
      <trkpt lat="43.55543" lon="3.26418">
        <ele>236</ele>
        <time>2021-04-03T07:59:51+02:00</time>
      </trkpt>
      <trkpt lat="43.55567" lon="3.26398">
        <ele>239</ele>
        <time>2021-04-03T07:59:56+02:00</time>
      </trkpt>
      <trkpt lat="43.55579" lon="3.26389">
        <ele>241</ele>
        <time>2021-04-03T08:00:01+02:00</time>
      </trkpt>
      <trkpt lat="43.55602" lon="3.26381">
        <ele>243</ele>
        <time>2021-04-03T08:00:06+02:00</time>
      </trkpt>
      <trkpt lat="43.5562" lon="3.26377">
        <ele>245</ele>
        <time>2021-04-03T08:00:11+02:00</time>
      </trkpt>
      <trkpt lat="43.55649" lon="3.2639">
        <ele>248</ele>
        <time>2021-04-03T08:00:16+02:00</time>
      </trkpt>
      <trkpt lat="43.55673" lon="3.26393">
        <ele>250</ele>
        <time>2021-04-03T08:00:21+02:00</time>
      </trkpt>
      <trkpt lat="43.55706" lon="3.26391">
        <ele>253</ele>
        <time>2021-04-03T08:00:26+02:00</time>
      </trkpt>
      <trkpt lat="43.5572" lon="3.2639">
        <ele>257</ele>
        <time>2021-04-03T08:00:31+02:00</time>
      </trkpt>
      <trkpt lat="43.55731" lon="3.26405">
        <ele>257</ele>
        <time>2021-04-03T08:00:36+02:00</time>
      </trkpt>
      <trkpt lat="43.55747" lon="3.26417">
        <ele>258</ele>
        <time>2021-04-03T08:00:41+02:00</time>
      </trkpt>
      <trkpt lat="43.55758" lon="3.26428">
        <ele>257</ele>
        <time>2021-04-03T08:00:46+02:00</time>
      </trkpt>
      <trkpt lat="43.55774" lon="3.26418">
        <ele>260</ele>
        <time>2021-04-03T08:00:51+02:00</time>
      </trkpt>
      <trkpt lat="43.55792" lon="3.26428">
        <ele>262</ele>
        <time>2021-04-03T08:00:56+02:00</time>
      </trkpt>
      <trkpt lat="43.55804" lon="3.26436">
        <ele>264</ele>
        <time>2021-04-03T08:01:01+02:00</time>
      </trkpt>
      <trkpt lat="43.55867" lon="3.26472">
        <ele>270</ele>
        <time>2021-04-03T08:01:06+02:00</time>
      </trkpt>
      <trkpt lat="43.55862" lon="3.26492">
        <ele>268</ele>
        <time>2021-04-03T08:01:11+02:00</time>
      </trkpt>
      <trkpt lat="43.55861" lon="3.26513">
        <ele>269</ele>
        <time>2021-04-03T08:01:16+02:00</time>
      </trkpt>
      <trkpt lat="43.55833" lon="3.26582">
        <ele>265</ele>
        <time>2021-04-03T08:01:21+02:00</time>
      </trkpt>
      <trkpt lat="43.55834" lon="3.26612">
        <ele>264</ele>
        <time>2021-04-03T08:01:26+02:00</time>
      </trkpt>
      <trkpt lat="43.55863" lon="3.26671">
        <ele>262</ele>
        <time>2021-04-03T08:01:31+02:00</time>
      </trkpt>
      <trkpt lat="43.55896" lon="3.26722">
        <ele>261</ele>
        <time>2021-04-03T08:01:36+02:00</time>
      </trkpt>
      <trkpt lat="43.55908" lon="3.26745">
        <ele>260</ele>
        <time>2021-04-03T08:01:41+02:00</time>
      </trkpt>
      <trkpt lat="43.5593" lon="3.26808">
        <ele>257</ele>
        <time>2021-04-03T08:01:46+02:00</time>
      </trkpt>
      <trkpt lat="43.55928" lon="3.26851">
        <ele>253</ele>
        <time>2021-04-03T08:01:51+02:00</time>
      </trkpt>
      <trkpt lat="43.55948" lon="3.26856">
        <ele>253</ele>
        <time>2021-04-03T08:01:56+02:00</time>
      </trkpt>
      <trkpt lat="43.55965" lon="3.26857">
        <ele>255</ele>
        <time>2021-04-03T08:02:01+02:00</time>
      </trkpt>
      <trkpt lat="43.55978" lon="3.26872">
        <ele>256</ele>
        <time>2021-04-03T08:02:06+02:00</time>
      </trkpt>
      <trkpt lat="43.55976" lon="3.26898">
        <ele>253</ele>
        <time>2021-04-03T08:02:11+02:00</time>
      </trkpt>
      <trkpt lat="43.55978" lon="3.26924">
        <ele>252</ele>
        <time>2021-04-03T08:02:16+02:00</time>
      </trkpt>
      <trkpt lat="43.55989" lon="3.26933">
        <ele>252</ele>
        <time>2021-04-03T08:02:21+02:00</time>
      </trkpt>
      <trkpt lat="43.56002" lon="3.26932">
        <ele>253</ele>
        <time>2021-04-03T08:02:26+02:00</time>
      </trkpt>
      <trkpt lat="43.56024" lon="3.26926">
        <ele>254</ele>
        <time>2021-04-03T08:02:31+02:00</time>
      </trkpt>
      <trkpt lat="43.56046" lon="3.26939">
        <ele>255</ele>
        <time>2021-04-03T08:02:36+02:00</time>
      </trkpt>
      <trkpt lat="43.56065" lon="3.26947">
        <ele>253</ele>
        <time>2021-04-03T08:02:41+02:00</time>
      </trkpt>
      <trkpt lat="43.56076" lon="3.26939">
        <ele>252</ele>
        <time>2021-04-03T08:02:46+02:00</time>
      </trkpt>
      <trkpt lat="43.56087" lon="3.26929">
        <ele>251</ele>
        <time>2021-04-03T08:02:51+02:00</time>
      </trkpt>
      <trkpt lat="43.56098" lon="3.26905">
        <ele>254</ele>
        <time>2021-04-03T08:02:56+02:00</time>
      </trkpt>
      <trkpt lat="43.56117" lon="3.26916">
        <ele>251</ele>
        <time>2021-04-03T08:03:01+02:00</time>
      </trkpt>
      <trkpt lat="43.56134" lon="3.2692">
        <ele>249</ele>
        <time>2021-04-03T08:03:06+02:00</time>
      </trkpt>
      <trkpt lat="43.5615" lon="3.26901">
        <ele>254</ele>
        <time>2021-04-03T08:03:11+02:00</time>
      </trkpt>
      <trkpt lat="43.56158" lon="3.26909">
        <ele>253</ele>
        <time>2021-04-03T08:03:16+02:00</time>
      </trkpt>
      <trkpt lat="43.56166" lon="3.26944">
        <ele>249</ele>
        <time>2021-04-03T08:03:21+02:00</time>
      </trkpt>
      <trkpt lat="43.5618" lon="3.26946">
        <ele>248</ele>
        <time>2021-04-03T08:03:26+02:00</time>
      </trkpt>
      <trkpt lat="43.56194" lon="3.26946">
        <ele>248</ele>
        <time>2021-04-03T08:03:31+02:00</time>
      </trkpt>
      <trkpt lat="43.56248" lon="3.26914">
        <ele>250</ele>
        <time>2021-04-03T08:03:36+02:00</time>
      </trkpt>
      <trkpt lat="43.56265" lon="3.26909">
        <ele>250</ele>
        <time>2021-04-03T08:03:41+02:00</time>
      </trkpt>
      <trkpt lat="43.56283" lon="3.26896">
        <ele>251</ele>
        <time>2021-04-03T08:03:46+02:00</time>
      </trkpt>
      <trkpt lat="43.56291" lon="3.26907">
        <ele>252</ele>
        <time>2021-04-03T08:03:51+02:00</time>
      </trkpt>
      <trkpt lat="43.5632" lon="3.26882">
        <ele>256</ele>
        <time>2021-04-03T08:03:56+02:00</time>
      </trkpt>
      <trkpt lat="43.56343" lon="3.26865">
        <ele>260</ele>
        <time>2021-04-03T08:04:01+02:00</time>
      </trkpt>
      <trkpt lat="43.56363" lon="3.26849">
        <ele>261</ele>
        <time>2021-04-03T08:04:06+02:00</time>
      </trkpt>
      <trkpt lat="43.56391" lon="3.26851">
        <ele>264</ele>
        <time>2021-04-03T08:04:11+02:00</time>
      </trkpt>
      <trkpt lat="43.56412" lon="3.26856">
        <ele>269</ele>
        <time>2021-04-03T08:04:16+02:00</time>
      </trkpt>
      <trkpt lat="43.56432" lon="3.26863">
        <ele>275</ele>
        <time>2021-04-03T08:04:21+02:00</time>
      </trkpt>
      <trkpt lat="43.56434" lon="3.26902">
        <ele>283</ele>
        <time>2021-04-03T08:04:26+02:00</time>
      </trkpt>
      <trkpt lat="43.56428" lon="3.26913">
        <ele>284</ele>
        <time>2021-04-03T08:04:31+02:00</time>
      </trkpt>
      <trkpt lat="43.56427" lon="3.26933">
        <ele>288</ele>
        <time>2021-04-03T08:04:36+02:00</time>
      </trkpt>
      <trkpt lat="43.56428" lon="3.26946">
        <ele>290</ele>
        <time>2021-04-03T08:04:41+02:00</time>
      </trkpt>
      <trkpt lat="43.56437" lon="3.26966">
        <ele>296</ele>
        <time>2021-04-03T08:04:46+02:00</time>
      </trkpt>
      <trkpt lat="43.56446" lon="3.26989">
        <ele>300</ele>
        <time>2021-04-03T08:04:51+02:00</time>
      </trkpt>
      <trkpt lat="43.5645" lon="3.2701">
        <ele>302</ele>
        <time>2021-04-03T08:04:56+02:00</time>
      </trkpt>
      <trkpt lat="43.56479" lon="3.27027">
        <ele>307</ele>
        <time>2021-04-03T08:05:01+02:00</time>
      </trkpt>
      <trkpt lat="43.56489" lon="3.27017">
        <ele>308</ele>
        <time>2021-04-03T08:05:06+02:00</time>
      </trkpt>
      <trkpt lat="43.56504" lon="3.26972">
        <ele>310</ele>
        <time>2021-04-03T08:05:11+02:00</time>
      </trkpt>
      <trkpt lat="43.56518" lon="3.26939">
        <ele>311</ele>
        <time>2021-04-03T08:05:16+02:00</time>
      </trkpt>
      <trkpt lat="43.56529" lon="3.26928">
        <ele>313</ele>
        <time>2021-04-03T08:05:21+02:00</time>
      </trkpt>
      <trkpt lat="43.56548" lon="3.26932">
        <ele>319</ele>
        <time>2021-04-03T08:05:26+02:00</time>
      </trkpt>
      <trkpt lat="43.56588" lon="3.26833">
        <ele>325</ele>
        <time>2021-04-03T08:05:31+02:00</time>
      </trkpt>
      <trkpt lat="43.56599" lon="3.26809">
        <ele>328</ele>
        <time>2021-04-03T08:05:36+02:00</time>
      </trkpt>
      <trkpt lat="43.56607" lon="3.26801">
        <ele>330</ele>
        <time>2021-04-03T08:05:41+02:00</time>
      </trkpt>
      <trkpt lat="43.56608" lon="3.26749">
        <ele>332</ele>
        <time>2021-04-03T08:05:46+02:00</time>
      </trkpt>
      <trkpt lat="43.5662" lon="3.26685">
        <ele>336</ele>
        <time>2021-04-03T08:05:51+02:00</time>
      </trkpt>
      <trkpt lat="43.56626" lon="3.26633">
        <ele>336</ele>
        <time>2021-04-03T08:05:56+02:00</time>
      </trkpt>
      <trkpt lat="43.56636" lon="3.26592">
        <ele>334</ele>
        <time>2021-04-03T08:06:01+02:00</time>
      </trkpt>
      <trkpt lat="43.56651" lon="3.26566">
        <ele>334</ele>
        <time>2021-04-03T08:06:06+02:00</time>
      </trkpt>
      <trkpt lat="43.56668" lon="3.26554">
        <ele>335</ele>
        <time>2021-04-03T08:06:11+02:00</time>
      </trkpt>
      <trkpt lat="43.56788" lon="3.2658">
        <ele>343</ele>
        <time>2021-04-03T08:06:16+02:00</time>
      </trkpt>
      <trkpt lat="43.56839" lon="3.26552">
        <ele>342</ele>
        <time>2021-04-03T08:06:21+02:00</time>
      </trkpt>
      <trkpt lat="43.56862" lon="3.26522">
        <ele>343</ele>
        <time>2021-04-03T08:06:26+02:00</time>
      </trkpt>
      <trkpt lat="43.5687" lon="3.26507">
        <ele>343</ele>
        <time>2021-04-03T08:06:31+02:00</time>
      </trkpt>
      <trkpt lat="43.56869" lon="3.2649">
        <ele>344</ele>
        <time>2021-04-03T08:06:36+02:00</time>
      </trkpt>
      <trkpt lat="43.56858" lon="3.26467">
        <ele>344</ele>
        <time>2021-04-03T08:06:41+02:00</time>
      </trkpt>
      <trkpt lat="43.56841" lon="3.26437">
        <ele>344</ele>
        <time>2021-04-03T08:06:46+02:00</time>
      </trkpt>
      <trkpt lat="43.56828" lon="3.2642">
        <ele>344</ele>
        <time>2021-04-03T08:06:51+02:00</time>
      </trkpt>
      <trkpt lat="43.56794" lon="3.26401">
        <ele>344</ele>
        <time>2021-04-03T08:06:56+02:00</time>
      </trkpt>
      <trkpt lat="43.56722" lon="3.26359">
        <ele>341</ele>
        <time>2021-04-03T08:07:01+02:00</time>
      </trkpt>
      <trkpt lat="43.56684" lon="3.26312">
        <ele>342</ele>
        <time>2021-04-03T08:07:06+02:00</time>
      </trkpt>
      <trkpt lat="43.56658" lon="3.26296">
        <ele>340</ele>
        <time>2021-04-03T08:07:11+02:00</time>
      </trkpt>
      <trkpt lat="43.56636" lon="3.26276">
        <ele>340</ele>
        <time>2021-04-03T08:07:16+02:00</time>
      </trkpt>
      <trkpt lat="43.56615" lon="3.26254">
        <ele>339</ele>
        <time>2021-04-03T08:07:21+02:00</time>
      </trkpt>
      <trkpt lat="43.56606" lon="3.26204">
        <ele>338</ele>
        <time>2021-04-03T08:07:26+02:00</time>
      </trkpt>
      <trkpt lat="43.56602" lon="3.26192">
        <ele>338</ele>
        <time>2021-04-03T08:07:31+02:00</time>
      </trkpt>
      <trkpt lat="43.56576" lon="3.26173">
        <ele>336</ele>
        <time>2021-04-03T08:07:36+02:00</time>
      </trkpt>
      <trkpt lat="43.56547" lon="3.26152">
        <ele>334</ele>
        <time>2021-04-03T08:07:41+02:00</time>
      </trkpt>
      <trkpt lat="43.56518" lon="3.26116">
        <ele>332</ele>
        <time>2021-04-03T08:07:46+02:00</time>
      </trkpt>
      <trkpt lat="43.56493" lon="3.26082">
        <ele>330</ele>
        <time>2021-04-03T08:07:51+02:00</time>
      </trkpt>
      <trkpt lat="43.56476" lon="3.26064">
        <ele>329</ele>
        <time>2021-04-03T08:07:56+02:00</time>
      </trkpt>
      <trkpt lat="43.56449" lon="3.26">
        <ele>325</ele>
        <time>2021-04-03T08:08:01+02:00</time>
      </trkpt>
      <trkpt lat="43.56405" lon="3.25973">
        <ele>320</ele>
        <time>2021-04-03T08:08:06+02:00</time>
      </trkpt>
      <trkpt lat="43.56391" lon="3.25963">
        <ele>319</ele>
        <time>2021-04-03T08:08:11+02:00</time>
      </trkpt>
      <trkpt lat="43.56362" lon="3.25951">
        <ele>316</ele>
        <time>2021-04-03T08:08:16+02:00</time>
      </trkpt>
      <trkpt lat="43.5635" lon="3.25935">
        <ele>315</ele>
        <time>2021-04-03T08:08:21+02:00</time>
      </trkpt>
      <trkpt lat="43.56327" lon="3.25913">
        <ele>312</ele>
        <time>2021-04-03T08:08:26+02:00</time>
      </trkpt>
      <trkpt lat="43.56315" lon="3.25873">
        <ele>310</ele>
        <time>2021-04-03T08:08:31+02:00</time>
      </trkpt>
      <trkpt lat="43.56312" lon="3.2583">
        <ele>307</ele>
        <time>2021-04-03T08:08:36+02:00</time>
      </trkpt>
      <trkpt lat="43.56308" lon="3.25804">
        <ele>305</ele>
        <time>2021-04-03T08:08:41+02:00</time>
      </trkpt>
      <trkpt lat="43.5631" lon="3.25783">
        <ele>304</ele>
        <time>2021-04-03T08:08:46+02:00</time>
      </trkpt>
      <trkpt lat="43.56302" lon="3.25768">
        <ele>302</ele>
        <time>2021-04-03T08:08:51+02:00</time>
      </trkpt>
      <trkpt lat="43.56299" lon="3.25748">
        <ele>301</ele>
        <time>2021-04-03T08:08:56+02:00</time>
      </trkpt>
      <trkpt lat="43.56288" lon="3.25736">
        <ele>300</ele>
        <time>2021-04-03T08:09:01+02:00</time>
      </trkpt>
      <trkpt lat="43.56292" lon="3.25711">
        <ele>300</ele>
        <time>2021-04-03T08:09:06+02:00</time>
      </trkpt>
      <trkpt lat="43.56298" lon="3.25692">
        <ele>300</ele>
        <time>2021-04-03T08:09:11+02:00</time>
      </trkpt>
      <trkpt lat="43.56318" lon="3.2569">
        <ele>301</ele>
        <time>2021-04-03T08:09:16+02:00</time>
      </trkpt>
      <trkpt lat="43.56336" lon="3.2568">
        <ele>303</ele>
        <time>2021-04-03T08:09:21+02:00</time>
      </trkpt>
      <trkpt lat="43.56351" lon="3.25658">
        <ele>306</ele>
        <time>2021-04-03T08:09:26+02:00</time>
      </trkpt>
      <trkpt lat="43.56369" lon="3.25648">
        <ele>308</ele>
        <time>2021-04-03T08:09:31+02:00</time>
      </trkpt>
      <trkpt lat="43.56387" lon="3.25644">
        <ele>310</ele>
        <time>2021-04-03T08:09:36+02:00</time>
      </trkpt>
      <trkpt lat="43.56403" lon="3.25636">
        <ele>311</ele>
        <time>2021-04-03T08:09:41+02:00</time>
      </trkpt>
      <trkpt lat="43.56409" lon="3.25615">
        <ele>312</ele>
        <time>2021-04-03T08:09:46+02:00</time>
      </trkpt>
      <trkpt lat="43.56404" lon="3.25603">
        <ele>312</ele>
        <time>2021-04-03T08:09:51+02:00</time>
      </trkpt>
      <trkpt lat="43.56389" lon="3.25596">
        <ele>312</ele>
        <time>2021-04-03T08:09:56+02:00</time>
      </trkpt>
      <trkpt lat="43.56367" lon="3.25572">
        <ele>313</ele>
        <time>2021-04-03T08:10:01+02:00</time>
      </trkpt>
      <trkpt lat="43.56333" lon="3.25534">
        <ele>313</ele>
        <time>2021-04-03T08:10:06+02:00</time>
      </trkpt>
      <trkpt lat="43.56307" lon="3.2551">
        <ele>311</ele>
        <time>2021-04-03T08:10:11+02:00</time>
      </trkpt>
      <trkpt lat="43.56287" lon="3.25491">
        <ele>310</ele>
        <time>2021-04-03T08:10:16+02:00</time>
      </trkpt>
      <trkpt lat="43.56278" lon="3.25466">
        <ele>309</ele>
        <time>2021-04-03T08:10:21+02:00</time>
      </trkpt>
      <trkpt lat="43.56289" lon="3.25377">
        <ele>306</ele>
        <time>2021-04-03T08:10:26+02:00</time>
      </trkpt>
      <trkpt lat="43.56301" lon="3.25347">
        <ele>306</ele>
        <time>2021-04-03T08:10:31+02:00</time>
      </trkpt>
      <trkpt lat="43.56297" lon="3.25331">
        <ele>304</ele>
        <time>2021-04-03T08:10:36+02:00</time>
      </trkpt>
      <trkpt lat="43.56287" lon="3.25321">
        <ele>304</ele>
        <time>2021-04-03T08:10:41+02:00</time>
      </trkpt>
      <trkpt lat="43.56271" lon="3.25315">
        <ele>302</ele>
        <time>2021-04-03T08:10:46+02:00</time>
      </trkpt>
      <trkpt lat="43.56254" lon="3.25296">
        <ele>301</ele>
        <time>2021-04-03T08:10:51+02:00</time>
      </trkpt>
      <trkpt lat="43.56238" lon="3.2528">
        <ele>300</ele>
        <time>2021-04-03T08:10:56+02:00</time>
      </trkpt>
      <trkpt lat="43.56225" lon="3.25248">
        <ele>300</ele>
        <time>2021-04-03T08:11:01+02:00</time>
      </trkpt>
      <trkpt lat="43.56203" lon="3.25223">
        <ele>300</ele>
        <time>2021-04-03T08:11:06+02:00</time>
      </trkpt>
      <trkpt lat="43.56187" lon="3.25197">
        <ele>300</ele>
        <time>2021-04-03T08:11:11+02:00</time>
      </trkpt>
      <trkpt lat="43.5618" lon="3.25164">
        <ele>300</ele>
        <time>2021-04-03T08:11:16+02:00</time>
      </trkpt>
      <trkpt lat="43.56174" lon="3.25126">
        <ele>300</ele>
        <time>2021-04-03T08:11:21+02:00</time>
      </trkpt>
      <trkpt lat="43.56184" lon="3.25072">
        <ele>301</ele>
        <time>2021-04-03T08:11:26+02:00</time>
      </trkpt>
      <trkpt lat="43.56198" lon="3.25039">
        <ele>301</ele>
        <time>2021-04-03T08:11:31+02:00</time>
      </trkpt>
      <trkpt lat="43.56212" lon="3.25016">
        <ele>301</ele>
        <time>2021-04-03T08:11:36+02:00</time>
      </trkpt>
      <trkpt lat="43.56207" lon="3.24972">
        <ele>300</ele>
        <time>2021-04-03T08:11:41+02:00</time>
      </trkpt>
      <trkpt lat="43.56207" lon="3.24935">
        <ele>298</ele>
        <time>2021-04-03T08:11:46+02:00</time>
      </trkpt>
      <trkpt lat="43.56212" lon="3.24907">
        <ele>294</ele>
        <time>2021-04-03T08:11:51+02:00</time>
      </trkpt>
      <trkpt lat="43.56231" lon="3.24889">
        <ele>292</ele>
        <time>2021-04-03T08:11:56+02:00</time>
      </trkpt>
      <trkpt lat="43.56199" lon="3.24887">
        <ele>292</ele>
        <time>2021-04-03T08:12:01+02:00</time>
      </trkpt>
      <trkpt lat="43.56167" lon="3.24889">
        <ele>289</ele>
        <time>2021-04-03T08:12:06+02:00</time>
      </trkpt>
      <trkpt lat="43.56129" lon="3.24904">
        <ele>288</ele>
        <time>2021-04-03T08:12:11+02:00</time>
      </trkpt>
      <trkpt lat="43.56113" lon="3.24919">
        <ele>289</ele>
        <time>2021-04-03T08:12:16+02:00</time>
      </trkpt>
      <trkpt lat="43.56095" lon="3.2493">
        <ele>290</ele>
        <time>2021-04-03T08:12:21+02:00</time>
      </trkpt>
      <trkpt lat="43.5605" lon="3.24945">
        <ele>290</ele>
        <time>2021-04-03T08:12:26+02:00</time>
      </trkpt>
      <trkpt lat="43.56032" lon="3.24944">
        <ele>290</ele>
        <time>2021-04-03T08:12:31+02:00</time>
      </trkpt>
      <trkpt lat="43.56013" lon="3.24935">
        <ele>289</ele>
        <time>2021-04-03T08:12:36+02:00</time>
      </trkpt>
      <trkpt lat="43.55982" lon="3.24921">
        <ele>289</ele>
        <time>2021-04-03T08:12:41+02:00</time>
      </trkpt>
      <trkpt lat="43.55959" lon="3.24899">
        <ele>288</ele>
        <time>2021-04-03T08:12:46+02:00</time>
      </trkpt>
      <trkpt lat="43.55926" lon="3.2489">
        <ele>287</ele>
        <time>2021-04-03T08:12:51+02:00</time>
      </trkpt>
      <trkpt lat="43.5588" lon="3.24858">
        <ele>284</ele>
        <time>2021-04-03T08:12:56+02:00</time>
      </trkpt>
      <trkpt lat="43.55871" lon="3.24857">
        <ele>283</ele>
        <time>2021-04-03T08:13:01+02:00</time>
      </trkpt>
      <trkpt lat="43.55832" lon="3.2487">
        <ele>280</ele>
        <time>2021-04-03T08:13:06+02:00</time>
      </trkpt>
      <trkpt lat="43.55813" lon="3.24874">
        <ele>279</ele>
        <time>2021-04-03T08:13:11+02:00</time>
      </trkpt>
      <trkpt lat="43.55796" lon="3.24869">
        <ele>278</ele>
        <time>2021-04-03T08:13:16+02:00</time>
      </trkpt>
      <trkpt lat="43.55744" lon="3.24851">
        <ele>275</ele>
        <time>2021-04-03T08:13:21+02:00</time>
      </trkpt>
      <trkpt lat="43.55691" lon="3.24846">
        <ele>275</ele>
        <time>2021-04-03T08:13:26+02:00</time>
      </trkpt>
      <trkpt lat="43.55642" lon="3.24851">
        <ele>273</ele>
        <time>2021-04-03T08:13:31+02:00</time>
      </trkpt>
      <trkpt lat="43.55621" lon="3.24857">
        <ele>271</ele>
        <time>2021-04-03T08:13:36+02:00</time>
      </trkpt>
      <trkpt lat="43.5557" lon="3.24827">
        <ele>270</ele>
        <time>2021-04-03T08:13:41+02:00</time>
      </trkpt>
      <trkpt lat="43.55544" lon="3.24811">
        <ele>269</ele>
        <time>2021-04-03T08:13:46+02:00</time>
      </trkpt>
      <trkpt lat="43.55537" lon="3.24806">
        <ele>269</ele>
        <time>2021-04-03T08:13:51+02:00</time>
      </trkpt>
      <trkpt lat="43.5553" lon="3.24783">
        <ele>267</ele>
        <time>2021-04-03T08:13:56+02:00</time>
      </trkpt>
      <trkpt lat="43.55511" lon="3.24785">
        <ele>265</ele>
        <time>2021-04-03T08:14:01+02:00</time>
      </trkpt>
      <trkpt lat="43.55494" lon="3.24791">
        <ele>263</ele>
        <time>2021-04-03T08:14:06+02:00</time>
      </trkpt>
      <trkpt lat="43.55459" lon="3.24804">
        <ele>259</ele>
        <time>2021-04-03T08:14:11+02:00</time>
      </trkpt>
      <trkpt lat="43.55425" lon="3.24801">
        <ele>256</ele>
        <time>2021-04-03T08:14:16+02:00</time>
      </trkpt>
      <trkpt lat="43.55405" lon="3.24808">
        <ele>255</ele>
        <time>2021-04-03T08:14:21+02:00</time>
      </trkpt>
      <trkpt lat="43.5539" lon="3.24791">
        <ele>254</ele>
        <time>2021-04-03T08:14:26+02:00</time>
      </trkpt>
      <trkpt lat="43.55374" lon="3.24796">
        <ele>255</ele>
        <time>2021-04-03T08:14:31+02:00</time>
      </trkpt>
      <trkpt lat="43.5537" lon="3.24811">
        <ele>255</ele>
        <time>2021-04-03T08:14:36+02:00</time>
      </trkpt>
      <trkpt lat="43.55317" lon="3.24782">
        <ele>255</ele>
        <time>2021-04-03T08:14:41+02:00</time>
      </trkpt>
      <trkpt lat="43.55288" lon="3.24773">
        <ele>255</ele>
        <time>2021-04-03T08:14:46+02:00</time>
      </trkpt>
      <trkpt lat="43.5527" lon="3.24769">
        <ele>255</ele>
        <time>2021-04-03T08:14:51+02:00</time>
      </trkpt>
      <trkpt lat="43.55249" lon="3.24781">
        <ele>255</ele>
        <time>2021-04-03T08:14:56+02:00</time>
      </trkpt>
      <trkpt lat="43.55224" lon="3.24796">
        <ele>255</ele>
        <time>2021-04-03T08:15:01+02:00</time>
      </trkpt>
      <trkpt lat="43.55201" lon="3.24798">
        <ele>255</ele>
        <time>2021-04-03T08:15:06+02:00</time>
      </trkpt>
      <trkpt lat="43.55171" lon="3.24795">
        <ele>254</ele>
        <time>2021-04-03T08:15:11+02:00</time>
      </trkpt>
      <trkpt lat="43.55157" lon="3.24794">
        <ele>254</ele>
        <time>2021-04-03T08:15:16+02:00</time>
      </trkpt>
      <trkpt lat="43.55136" lon="3.24809">
        <ele>255</ele>
        <time>2021-04-03T08:15:21+02:00</time>
      </trkpt>
      <trkpt lat="43.55098" lon="3.24807">
        <ele>253</ele>
        <time>2021-04-03T08:15:26+02:00</time>
      </trkpt>
      <trkpt lat="43.55084" lon="3.24806">
        <ele>252</ele>
        <time>2021-04-03T08:15:31+02:00</time>
      </trkpt>
      <trkpt lat="43.55054" lon="3.24815">
        <ele>250</ele>
        <time>2021-04-03T08:15:36+02:00</time>
      </trkpt>
      <trkpt lat="43.55033" lon="3.24814">
        <ele>250</ele>
        <time>2021-04-03T08:15:41+02:00</time>
      </trkpt>
      <trkpt lat="43.55007" lon="3.24844">
        <ele>250</ele>
        <time>2021-04-03T08:15:46+02:00</time>
      </trkpt>
      <trkpt lat="43.5499" lon="3.24862">
        <ele>249</ele>
        <time>2021-04-03T08:15:51+02:00</time>
      </trkpt>
      <trkpt lat="43.54975" lon="3.24865">
        <ele>248</ele>
        <time>2021-04-03T08:15:56+02:00</time>
      </trkpt>
      <trkpt lat="43.54965" lon="3.24873">
        <ele>247</ele>
        <time>2021-04-03T08:16:01+02:00</time>
      </trkpt>
      <trkpt lat="43.54937" lon="3.2487">
        <ele>246</ele>
        <time>2021-04-03T08:16:06+02:00</time>
      </trkpt>
      <trkpt lat="43.54898" lon="3.24888">
        <ele>245</ele>
        <time>2021-04-03T08:16:11+02:00</time>
      </trkpt>
      <trkpt lat="43.54869" lon="3.24912">
        <ele>245</ele>
        <time>2021-04-03T08:16:16+02:00</time>
      </trkpt>
      <trkpt lat="43.54851" lon="3.24924">
        <ele>245</ele>
        <time>2021-04-03T08:16:21+02:00</time>
      </trkpt>
      <trkpt lat="43.54835" lon="3.2493">
        <ele>245</ele>
        <time>2021-04-03T08:16:26+02:00</time>
      </trkpt>
      <trkpt lat="43.54826" lon="3.24949">
        <ele>245</ele>
        <time>2021-04-03T08:16:31+02:00</time>
      </trkpt>
      <trkpt lat="43.54805" lon="3.24957">
        <ele>245</ele>
        <time>2021-04-03T08:16:36+02:00</time>
      </trkpt>
      <trkpt lat="43.5478" lon="3.24949">
        <ele>245</ele>
        <time>2021-04-03T08:16:41+02:00</time>
      </trkpt>
      <trkpt lat="43.54769" lon="3.24968">
        <ele>243</ele>
        <time>2021-04-03T08:16:46+02:00</time>
      </trkpt>
      <trkpt lat="43.54741" lon="3.24982">
        <ele>241</ele>
        <time>2021-04-03T08:16:51+02:00</time>
      </trkpt>
      <trkpt lat="43.54712" lon="3.2494">
        <ele>243</ele>
        <time>2021-04-03T08:16:56+02:00</time>
      </trkpt>
      <trkpt lat="43.54676" lon="3.24926">
        <ele>242</ele>
        <time>2021-04-03T08:17:01+02:00</time>
      </trkpt>
      <trkpt lat="43.54665" lon="3.24918">
        <ele>241</ele>
        <time>2021-04-03T08:17:06+02:00</time>
      </trkpt>
      <trkpt lat="43.54631" lon="3.24916">
        <ele>240</ele>
        <time>2021-04-03T08:17:11+02:00</time>
      </trkpt>
      <trkpt lat="43.54615" lon="3.24906">
        <ele>240</ele>
        <time>2021-04-03T08:17:16+02:00</time>
      </trkpt>
      <trkpt lat="43.54598" lon="3.24913">
        <ele>240</ele>
        <time>2021-04-03T08:17:21+02:00</time>
      </trkpt>
      <trkpt lat="43.5458" lon="3.24907">
        <ele>240</ele>
        <time>2021-04-03T08:17:26+02:00</time>
      </trkpt>
      <trkpt lat="43.54555" lon="3.24912">
        <ele>239</ele>
        <time>2021-04-03T08:17:31+02:00</time>
      </trkpt>
      <trkpt lat="43.54538" lon="3.24909">
        <ele>238</ele>
        <time>2021-04-03T08:17:36+02:00</time>
      </trkpt>
      <trkpt lat="43.54523" lon="3.24901">
        <ele>237</ele>
        <time>2021-04-03T08:17:41+02:00</time>
      </trkpt>
      <trkpt lat="43.54515" lon="3.24888">
        <ele>238</ele>
        <time>2021-04-03T08:17:46+02:00</time>
      </trkpt>
      <trkpt lat="43.54495" lon="3.24873">
        <ele>235</ele>
        <time>2021-04-03T08:17:51+02:00</time>
      </trkpt>
      <trkpt lat="43.54476" lon="3.2487">
        <ele>232</ele>
        <time>2021-04-03T08:17:56+02:00</time>
      </trkpt>
      <trkpt lat="43.54459" lon="3.24859">
        <ele>230</ele>
        <time>2021-04-03T08:18:01+02:00</time>
      </trkpt>
      <trkpt lat="43.54447" lon="3.24836">
        <ele>230</ele>
        <time>2021-04-03T08:18:06+02:00</time>
      </trkpt>
      <trkpt lat="43.54419" lon="3.24831">
        <ele>226</ele>
        <time>2021-04-03T08:18:11+02:00</time>
      </trkpt>
      <trkpt lat="43.54407" lon="3.24813">
        <ele>224</ele>
        <time>2021-04-03T08:18:16+02:00</time>
      </trkpt>
      <trkpt lat="43.5438" lon="3.24791">
        <ele>222</ele>
        <time>2021-04-03T08:18:21+02:00</time>
      </trkpt>
      <trkpt lat="43.54363" lon="3.24786">
        <ele>221</ele>
        <time>2021-04-03T08:18:26+02:00</time>
      </trkpt>
      <trkpt lat="43.54345" lon="3.24784">
        <ele>221</ele>
        <time>2021-04-03T08:18:31+02:00</time>
      </trkpt>
      <trkpt lat="43.54329" lon="3.24772">
        <ele>222</ele>
        <time>2021-04-03T08:18:36+02:00</time>
      </trkpt>
      <trkpt lat="43.54297" lon="3.24776">
        <ele>223</ele>
        <time>2021-04-03T08:18:41+02:00</time>
      </trkpt>
      <trkpt lat="43.54258" lon="3.24762">
        <ele>224</ele>
        <time>2021-04-03T08:18:46+02:00</time>
      </trkpt>
      <trkpt lat="43.54233" lon="3.24752">
        <ele>225</ele>
        <time>2021-04-03T08:18:51+02:00</time>
      </trkpt>
      <trkpt lat="43.54213" lon="3.24752">
        <ele>226</ele>
        <time>2021-04-03T08:18:56+02:00</time>
      </trkpt>
      <trkpt lat="43.54204" lon="3.24749">
        <ele>226</ele>
        <time>2021-04-03T08:19:01+02:00</time>
      </trkpt>
      <trkpt lat="43.54164" lon="3.24774">
        <ele>228</ele>
        <time>2021-04-03T08:19:06+02:00</time>
      </trkpt>
      <trkpt lat="43.54153" lon="3.24781">
        <ele>228</ele>
        <time>2021-04-03T08:19:11+02:00</time>
      </trkpt>
      <trkpt lat="43.54135" lon="3.24782">
        <ele>228</ele>
        <time>2021-04-03T08:19:16+02:00</time>
      </trkpt>
      <trkpt lat="43.54127" lon="3.24793">
        <ele>226</ele>
        <time>2021-04-03T08:19:21+02:00</time>
      </trkpt>
      <trkpt lat="43.54091" lon="3.24795">
        <ele>224</ele>
        <time>2021-04-03T08:19:26+02:00</time>
      </trkpt>
      <trkpt lat="43.5407" lon="3.24816">
        <ele>218</ele>
        <time>2021-04-03T08:19:31+02:00</time>
      </trkpt>
      <trkpt lat="43.54057" lon="3.2481">
        <ele>216</ele>
        <time>2021-04-03T08:19:36+02:00</time>
      </trkpt>
      <trkpt lat="43.54037" lon="3.248">
        <ele>210</ele>
        <time>2021-04-03T08:19:41+02:00</time>
      </trkpt>
      <trkpt lat="43.54017" lon="3.24792">
        <ele>206</ele>
        <time>2021-04-03T08:19:46+02:00</time>
      </trkpt>
      <trkpt lat="43.53999" lon="3.24787">
        <ele>203</ele>
        <time>2021-04-03T08:19:51+02:00</time>
      </trkpt>
      <trkpt lat="43.53982" lon="3.24792">
        <ele>200</ele>
        <time>2021-04-03T08:19:56+02:00</time>
      </trkpt>
      <trkpt lat="43.53963" lon="3.24777">
        <ele>198</ele>
        <time>2021-04-03T08:20:01+02:00</time>
      </trkpt>
      <trkpt lat="43.53947" lon="3.24767">
        <ele>195</ele>
        <time>2021-04-03T08:20:06+02:00</time>
      </trkpt>
      <trkpt lat="43.53938" lon="3.2477">
        <ele>192</ele>
        <time>2021-04-03T08:20:11+02:00</time>
      </trkpt>
      <trkpt lat="43.53924" lon="3.24757">
        <ele>189</ele>
        <time>2021-04-03T08:20:16+02:00</time>
      </trkpt>
      <trkpt lat="43.53904" lon="3.24749">
        <ele>183</ele>
        <time>2021-04-03T08:20:21+02:00</time>
      </trkpt>
      <trkpt lat="43.53886" lon="3.2475">
        <ele>178</ele>
        <time>2021-04-03T08:20:26+02:00</time>
      </trkpt>
      <trkpt lat="43.53868" lon="3.24747">
        <ele>172</ele>
        <time>2021-04-03T08:20:31+02:00</time>
      </trkpt>
      <trkpt lat="43.53854" lon="3.24737">
        <ele>167</ele>
        <time>2021-04-03T08:20:36+02:00</time>
      </trkpt>
      <trkpt lat="43.53837" lon="3.2472">
        <ele>160</ele>
        <time>2021-04-03T08:20:41+02:00</time>
      </trkpt>
      <trkpt lat="43.53819" lon="3.24717">
        <ele>155</ele>
        <time>2021-04-03T08:20:46+02:00</time>
      </trkpt>
      <trkpt lat="43.53809" lon="3.24695">
        <ele>151</ele>
        <time>2021-04-03T08:20:51+02:00</time>
      </trkpt>
      <trkpt lat="43.53809" lon="3.24672">
        <ele>148</ele>
        <time>2021-04-03T08:20:56+02:00</time>
      </trkpt>
      <trkpt lat="43.53803" lon="3.24661">
        <ele>146</ele>
        <time>2021-04-03T08:21:01+02:00</time>
      </trkpt>
      <trkpt lat="43.53785" lon="3.24645">
        <ele>143</ele>
        <time>2021-04-03T08:21:06+02:00</time>
      </trkpt>
      <trkpt lat="43.53772" lon="3.24633">
        <ele>142</ele>
        <time>2021-04-03T08:21:11+02:00</time>
      </trkpt>
      <trkpt lat="43.53767" lon="3.2464">
        <ele>141</ele>
        <time>2021-04-03T08:21:16+02:00</time>
      </trkpt>
      <trkpt lat="43.53742" lon="3.2464">
        <ele>139</ele>
        <time>2021-04-03T08:21:21+02:00</time>
      </trkpt>
      <trkpt lat="43.53669" lon="3.24854">
        <ele>137</ele>
        <time>2021-04-03T08:21:26+02:00</time>
      </trkpt>
      <trkpt lat="43.536" lon="3.25051">
        <ele>131</ele>
        <time>2021-04-03T08:21:31+02:00</time>
      </trkpt>
      <trkpt lat="43.53564" lon="3.25094">
        <ele>131</ele>
        <time>2021-04-03T08:21:36+02:00</time>
      </trkpt>
      <trkpt lat="43.53537" lon="3.25185">
        <ele>137</ele>
        <time>2021-04-03T08:21:41+02:00</time>
      </trkpt>
      <trkpt lat="43.53544" lon="3.25212">
        <ele>140</ele>
        <time>2021-04-03T08:21:46+02:00</time>
      </trkpt>
    </trkseg>
  </trk>
</gpx>